createdAt,value
2018-04-16T00:01:02.800Z,101336.16
2018-04-16T00:04:06.110Z,101338.84
2018-04-16T00:07:10.399Z,101346.74
2018-04-16T00:10:13.799Z,101346.04
2018-04-16T00:13:17.020Z,101353.53
2018-04-16T00:16:20.293Z,101359.59
2018-04-16T00:19:23.579Z,101366.28
2018-04-16T00:22:26.807Z,101365.82
2018-04-16T00:25:29.984Z,101374.93
2018-04-16T00:28:33.276Z,101366.72
2018-04-16T00:31:40.843Z,101374.84
2018-04-16T00:35:48.553Z,101376.20
2018-04-16T00:38:56.976Z,101381.61
2018-04-16T00:43:07.399Z,101379.71
2018-04-16T00:47:16.674Z,101384.46
2018-04-16T00:51:29.109Z,101379.81
2018-04-16T00:55:35.391Z,101378.02
2018-04-16T00:59:45.627Z,101380.23
2018-04-16T01:03:54.278Z,101377.23
2018-04-16T01:08:00.554Z,101367.89
2018-04-16T01:12:07.760Z,101367.46
2018-04-16T01:16:14.078Z,101370.40
2018-04-16T01:20:20.361Z,101371.08
2018-04-16T01:24:26.623Z,101371.61
2018-04-16T01:27:35.163Z,101375.06
2018-04-16T01:31:44.469Z,101369.62
2018-04-16T01:35:53.837Z,101367.17
2018-04-16T01:40:02.363Z,101366.94
2018-04-16T01:44:09.733Z,101362.87
2018-04-16T01:48:16.229Z,101370.55
2018-04-16T01:52:23.597Z,101379.17
2018-04-16T01:56:33.018Z,101382.18
2018-04-16T01:59:41.755Z,101375.05
2018-04-16T02:02:50.453Z,101378.39
2018-04-16T02:07:01.807Z,101381.16
2018-04-16T02:11:12.221Z,101386.85
2018-04-16T02:15:19.373Z,101388.60
2018-04-16T02:18:27.903Z,101392.96
2018-04-16T02:21:36.641Z,101394.21
2018-04-16T02:25:44.249Z,101401.86
2018-04-16T02:29:52.552Z,101403.33
2018-04-16T02:33:58.919Z,101397.52
2018-04-16T02:38:08.238Z,101394.73
2018-04-16T02:41:16.925Z,101394.70
2018-04-16T02:45:23.553Z,101404.40
2018-04-16T02:48:32.221Z,101409.11
2018-04-16T02:52:45.032Z,101408.19
2018-04-16T02:56:55.290Z,101416.57
2018-04-16T03:01:01.461Z,101417.45
2018-04-16T03:04:09.980Z,101420.45
2018-04-16T03:08:22.710Z,101426.50
2018-04-16T03:12:31.427Z,101427.06
2018-04-16T03:16:37.845Z,101434.23
2018-04-16T03:20:44.442Z,101428.18
2018-04-16T03:24:50.783Z,101427.11
2018-04-16T03:28:57.280Z,101427.18
2018-04-16T03:32:05.989Z,101429.23
2018-04-16T03:36:16.638Z,101429.49
2018-04-16T03:40:24.976Z,101429.10
2018-04-16T03:44:32.516Z,101432.98
2018-04-16T03:48:42.844Z,101438.70
2018-04-16T03:51:46.340Z,101442.84
2018-04-16T03:54:49.720Z,101441.76
2018-04-16T03:57:53.080Z,101443.15
2018-04-16T04:00:56.543Z,101447.19
2018-04-16T04:03:59.751Z,101454.32
2018-04-16T04:07:03.060Z,101453.60
2018-04-16T04:10:06.364Z,101457.52
2018-04-16T04:13:09.670Z,101459.91
2018-04-16T04:16:12.954Z,101458.00
2018-04-16T04:19:16.539Z,101461.00
2018-04-16T04:22:20.891Z,101465.04
2018-04-16T04:26:38.477Z,101467.15
2018-04-16T04:30:31.266Z,101469.92
2018-04-16T04:33:34.582Z,101469.40
2018-04-16T04:36:37.844Z,101468.91
2018-04-16T04:39:41.035Z,101472.57
2018-04-16T04:42:44.366Z,101473.29
2018-04-16T04:45:47.560Z,101475.33
2018-04-16T04:48:50.933Z,101481.89
2018-04-16T04:51:54.209Z,101485.64
2018-04-16T04:54:57.615Z,101492.98
2018-04-16T04:58:00.916Z,101495.76
2018-04-16T05:01:04.219Z,101507.64
2018-04-16T05:04:07.395Z,101508.25
2018-04-16T05:07:10.727Z,101511.99
2018-04-16T05:10:14.034Z,101513.53
2018-04-16T05:13:17.330Z,101512.03
2018-04-16T05:16:20.625Z,101513.26
2018-04-16T05:19:23.909Z,101512.83
2018-04-16T05:22:28.157Z,101516.07
2018-04-16T05:25:31.429Z,101520.39
2018-04-16T05:28:34.665Z,101526.31
2018-04-16T05:31:37.925Z,101528.49
2018-04-16T05:34:41.216Z,101541.93
2018-04-16T05:37:44.526Z,101546.87
2018-04-16T05:40:47.841Z,101553.15
2018-04-16T05:43:51.112Z,101558.18
2018-04-16T05:46:54.432Z,101557.99
2018-04-16T05:49:58.760Z,101562.73
2018-04-16T05:53:02.035Z,101569.47
2018-04-16T05:56:05.363Z,101576.08
2018-04-16T05:59:08.583Z,101581.90
2018-04-16T06:02:11.824Z,101586.07
2018-04-16T06:05:15.098Z,101588.77
2018-04-16T06:08:18.300Z,101585.61
2018-04-16T06:11:21.532Z,101586.65
2018-04-16T06:14:24.826Z,101592.52
2018-04-16T06:17:28.224Z,101595.09
2018-04-16T06:20:31.469Z,101598.85
2018-04-16T06:23:34.732Z,101597.02
2018-04-16T06:26:38.019Z,101598.64
2018-04-16T06:29:41.289Z,101601.77
2018-04-16T06:32:44.609Z,101598.63
2018-04-16T06:35:47.945Z,101600.01
2018-04-16T06:38:51.506Z,101600.25
2018-04-16T06:41:54.798Z,101598.96
2018-04-16T06:44:58.145Z,101600.49
2018-04-16T06:48:01.380Z,101606.93
2018-04-16T06:51:04.639Z,101608.72
2018-04-16T06:54:07.876Z,101613.66
2018-04-16T06:57:11.155Z,101616.46
2018-04-16T07:00:14.498Z,101612.46
2018-04-16T07:03:17.773Z,101618.26
2018-04-16T07:06:21.079Z,101620.79
2018-04-16T07:09:24.310Z,101622.09
2018-04-16T07:12:27.648Z,101619.10
2018-04-16T07:15:30.920Z,101617.12
2018-04-16T07:18:34.064Z,101614.60
2018-04-16T07:21:37.356Z,101613.27
2018-04-16T07:24:40.552Z,101613.13
2018-04-16T07:27:43.819Z,101604.05
2018-04-16T07:30:47.020Z,101611.78
2018-04-16T07:33:50.239Z,101605.72
2018-04-16T07:36:53.500Z,101608.54
2018-04-16T07:39:57.773Z,101610.67
2018-04-16T07:43:01.068Z,101610.87
2018-04-16T07:46:04.350Z,101611.82
2018-04-16T07:49:07.561Z,101614.33
2018-04-16T07:52:10.857Z,101615.12
2018-04-16T07:55:14.155Z,101609.78
2018-04-16T07:58:17.417Z,101603.31
2018-04-16T08:01:20.628Z,101608.28
2018-04-16T08:04:23.916Z,101614.08
2018-04-16T08:07:28.124Z,101610.22
2018-04-16T08:10:31.352Z,101612.24
2018-04-16T08:13:34.551Z,101611.97
2018-04-16T08:16:37.840Z,101611.29
2018-04-16T08:19:41.120Z,101611.72
2018-04-16T08:22:44.450Z,101612.89
2018-04-16T08:25:47.730Z,101611.97
2018-04-16T08:28:51.032Z,101613.57
2018-04-16T08:31:54.433Z,101613.21
2018-04-16T08:34:58.946Z,101614.13
2018-04-16T08:38:02.245Z,101611.71
2018-04-16T08:41:05.567Z,101615.38
2018-04-16T08:44:08.859Z,101615.40
2018-04-16T08:47:12.185Z,101614.76
2018-04-16T08:50:15.439Z,101614.04
2018-04-16T08:53:18.749Z,101609.47
2018-04-16T08:56:22.030Z,101613.68
2018-04-16T08:59:26.017Z,101612.20
2018-04-16T09:02:29.244Z,101607.53
2018-04-16T09:05:32.534Z,101614.56
2018-04-16T09:08:35.868Z,101605.67
2018-04-16T09:11:38.993Z,101616.21
2018-04-16T09:14:42.128Z,101617.79
2018-04-16T09:17:45.324Z,101620.46
2018-04-16T09:20:48.751Z,101626.84
2018-04-16T09:23:52.060Z,101625.34
2018-04-16T09:26:55.187Z,101625.68
2018-04-16T09:29:59.512Z,101625.44
2018-04-16T09:33:02.787Z,101636.42
2018-04-16T09:36:06.127Z,101631.46
2018-04-16T09:39:09.579Z,101626.28
2018-04-16T09:42:12.904Z,101633.19
2018-04-16T09:45:16.099Z,101635.43
2018-04-16T09:48:19.424Z,101631.79
2018-04-16T09:51:22.706Z,101639.15
2018-04-16T09:54:27.115Z,101635.14
2018-04-16T09:57:30.320Z,101637.73
2018-04-16T10:00:37.797Z,101634.10
2018-04-16T10:03:41.302Z,101636.83
2018-04-16T10:06:44.635Z,101636.59
2018-04-16T10:09:47.840Z,101635.52
2018-04-16T10:12:51.065Z,101640.19
2018-04-16T10:15:54.314Z,101639.91
2018-04-16T10:18:57.744Z,101649.31
2018-04-16T10:22:01.191Z,101647.19
2018-04-16T10:25:04.523Z,101652.12
2018-04-16T10:28:07.828Z,101651.15
2018-04-16T10:31:11.119Z,101648.97
2018-04-16T10:34:14.463Z,101656.19
2018-04-16T10:37:17.816Z,101655.57
2018-04-16T10:40:21.108Z,101656.91
2018-04-16T10:43:24.354Z,101653.03
2018-04-16T10:46:28.734Z,101647.43
2018-04-16T10:49:32.004Z,101651.42
2018-04-16T10:52:35.219Z,101658.40
2018-04-16T10:55:38.457Z,101658.77
2018-04-16T10:58:41.691Z,101656.25
2018-04-16T11:01:45.005Z,101657.98
2018-04-16T11:04:48.308Z,101649.78
2018-04-16T11:07:51.546Z,101658.82
2018-04-16T11:10:54.812Z,101652.90
2018-04-16T11:13:59.261Z,101652.41
2018-04-16T11:17:02.489Z,101661.56
2018-04-16T11:20:05.789Z,101658.23
2018-04-16T11:23:09.031Z,101654.96
2018-04-16T11:26:12.277Z,101659.37
2018-04-16T11:29:15.478Z,101665.13
2018-04-16T11:32:18.731Z,101667.91
2018-04-16T11:35:22.024Z,101673.49
2018-04-16T11:38:25.238Z,101678.27
2018-04-16T11:41:28.790Z,101680.20
2018-04-16T11:44:32.356Z,101674.85
2018-04-16T11:47:36.043Z,101674.97
2018-04-16T11:50:39.239Z,101671.98
2018-04-16T11:53:42.493Z,101672.79
2018-04-16T11:56:45.772Z,101665.96
2018-04-16T11:59:48.977Z,101672.50
2018-04-16T12:02:52.267Z,101666.69
2018-04-16T12:05:56.481Z,101670.94
2018-04-16T12:08:59.700Z,101675.91
2018-04-16T12:12:02.935Z,101674.72
2018-04-16T12:15:06.137Z,101679.87
2018-04-16T12:18:09.301Z,101674.10
2018-04-16T12:21:13.535Z,101680.33
2018-04-16T12:24:16.797Z,101677.56
2018-04-16T12:27:20.112Z,101681.11
2018-04-16T12:30:23.353Z,101682.50
2018-04-16T12:33:27.111Z,101678.39
2018-04-16T12:36:30.446Z,101675.59
2018-04-16T12:39:33.693Z,101680.79
2018-04-16T12:42:37.020Z,101689.53
2018-04-16T12:45:40.296Z,101691.51
2018-04-16T12:48:43.533Z,101693.40
2018-04-16T12:51:46.796Z,101696.41
2018-04-16T12:54:50.060Z,101699.97
2018-04-16T12:57:53.371Z,101706.13
2018-04-16T13:00:56.622Z,101698.61
2018-04-16T13:03:59.771Z,101697.63
2018-04-16T13:07:02.985Z,101701.52
2018-04-16T13:10:06.269Z,101698.46
2018-04-16T13:13:09.409Z,101698.38
2018-04-16T13:16:12.564Z,101700.31
2018-04-16T13:19:15.964Z,101696.69
2018-04-16T13:22:19.257Z,101696.36
2018-04-16T13:25:22.522Z,101698.75
2018-04-16T13:28:26.328Z,101696.10
2018-04-16T13:31:29.563Z,101693.19
2018-04-16T13:34:32.873Z,101693.02
2018-04-16T13:37:36.074Z,101685.65
2018-04-16T13:40:39.570Z,101683.77
2018-04-16T13:43:42.814Z,101683.09
2018-04-16T13:46:46.080Z,101679.83
2018-04-16T13:49:49.486Z,101673.57
2018-04-16T13:52:52.668Z,101674.20
2018-04-16T13:55:56.417Z,101671.28
2018-04-16T13:58:59.587Z,101670.42
2018-04-16T14:02:02.860Z,101673.92
2018-04-16T14:05:06.139Z,101674.65
2018-04-16T14:08:09.503Z,101676.63
2018-04-16T14:11:12.681Z,101677.65
2018-04-16T14:14:15.940Z,101684.22
2018-04-16T14:17:19.248Z,101678.04
2018-04-16T14:20:22.688Z,101675.45
2018-04-16T14:23:26.418Z,101675.25
2018-04-16T14:26:30.621Z,101676.83
2018-04-16T14:29:33.881Z,101670.92
2018-04-16T14:32:37.314Z,101668.04
2018-04-16T14:35:40.546Z,101671.88
2018-04-16T14:38:43.904Z,101677.29
2018-04-16T14:41:47.230Z,101680.44
2018-04-16T14:44:50.506Z,101682.79
2018-04-16T14:47:53.835Z,101682.33
2018-04-16T14:50:57.809Z,101695.16
2018-04-16T14:54:01.040Z,101683.81
2018-04-16T14:57:04.343Z,101681.07
2018-04-16T15:00:07.669Z,101681.19
2018-04-16T15:03:11.081Z,101674.83
2018-04-16T15:06:14.358Z,101681.58
2018-04-16T15:09:17.667Z,101687.39
2018-04-16T15:12:20.934Z,101691.87
2018-04-16T15:15:25.166Z,101693.54
2018-04-16T15:18:28.586Z,101699.45
2018-04-16T15:21:31.913Z,101701.31
2018-04-16T15:24:35.149Z,101697.67
2018-04-16T15:27:38.496Z,101695.80
2018-04-16T15:30:41.754Z,101693.51
2018-04-16T15:33:46.251Z,101691.93
2018-04-16T15:36:49.585Z,101690.54
2018-04-16T15:39:52.961Z,101695.67
2018-04-16T15:42:57.122Z,101700.81
2018-04-16T15:46:00.420Z,101691.76
2018-04-16T15:49:03.732Z,101688.37
2018-04-16T15:52:06.961Z,101688.23
2018-04-16T15:55:10.212Z,101684.84
2018-04-16T15:58:13.431Z,101685.17
2018-04-16T16:01:16.585Z,101686.51
2018-04-16T16:04:19.911Z,101684.20
2018-04-16T16:07:23.033Z,101684.61
2018-04-16T16:10:26.411Z,101692.28
2018-04-16T16:13:29.608Z,101690.97
2018-04-16T16:16:32.956Z,101696.67
2018-04-16T16:19:36.156Z,101701.10
2018-04-16T16:22:39.459Z,101700.93
2018-04-16T16:25:42.685Z,101714.55
2018-04-16T16:28:45.959Z,101713.41
2018-04-16T16:31:49.264Z,101712.46
2018-04-16T16:34:52.531Z,101712.02
2018-04-16T16:37:56.067Z,101713.22
2018-04-16T16:40:59.416Z,101712.53
2018-04-16T16:44:02.716Z,101710.66
2018-04-16T16:47:06.113Z,101711.54
2018-04-16T16:50:09.525Z,101709.69
2018-04-16T16:53:12.882Z,101709.74
2018-04-16T16:56:16.235Z,101714.28
2018-04-16T16:59:19.616Z,101723.57
2018-04-16T17:02:22.961Z,101733.18
2018-04-16T17:05:26.377Z,101731.45
2018-04-16T17:08:29.729Z,101742.25
2018-04-16T17:11:34.206Z,101741.07
2018-04-16T17:14:37.581Z,101742.98
2018-04-16T17:17:41.075Z,101746.21
2018-04-16T17:20:44.251Z,101752.44
2018-04-16T17:23:47.589Z,101753.83
2018-04-16T17:26:50.876Z,101758.84
2018-04-16T17:29:54.200Z,101762.16
2018-04-16T17:32:57.536Z,101761.32
2018-04-16T17:36:00.951Z,101763.11
2018-04-16T17:39:05.599Z,101774.43
2018-04-16T17:42:08.958Z,101776.90
2018-04-16T17:45:12.341Z,101773.69
2018-04-16T17:48:15.685Z,101781.00
2018-04-16T17:51:18.884Z,101785.33
2018-04-16T17:54:22.212Z,101793.77
2018-04-16T17:57:25.557Z,101801.07
2018-04-16T18:00:29.042Z,101809.77
2018-04-16T18:03:32.489Z,101814.18
2018-04-16T18:06:35.800Z,101816.99
2018-04-16T18:09:39.089Z,101818.05
2018-04-16T18:12:42.477Z,101827.70
2018-04-16T18:15:45.832Z,101835.64
2018-04-16T18:18:49.282Z,101840.14
2018-04-16T18:21:52.512Z,101844.05
2018-04-16T18:24:55.791Z,101849.07
2018-04-16T18:27:59.128Z,101860.04
2018-04-16T18:31:02.394Z,101866.60
2018-04-16T18:34:05.762Z,101871.04
2018-04-16T18:37:09.120Z,101878.50
2018-04-16T18:40:12.393Z,101885.72
2018-04-16T18:43:15.873Z,101890.71
2018-04-16T18:46:19.203Z,101898.19
2018-04-16T18:49:22.557Z,101905.76
2018-04-16T18:52:26.052Z,101917.33
2018-04-16T18:55:29.331Z,101922.84
2018-04-16T18:58:32.483Z,101932.55
2018-04-16T19:01:36.087Z,101943.22
2018-04-16T19:04:39.331Z,101943.94
2018-04-16T19:07:42.644Z,101951.21
2018-04-16T19:10:45.883Z,101962.80
2018-04-16T19:13:49.116Z,101963.89
2018-04-16T19:16:52.421Z,101966.69
2018-04-16T19:19:55.672Z,101968.56
2018-04-16T19:22:59.591Z,101971.77
2018-04-16T19:26:02.940Z,101978.52
2018-04-16T19:29:06.183Z,101988.92
2018-04-16T19:32:09.452Z,101987.97
2018-04-16T19:35:12.712Z,101997.13
2018-04-16T19:38:15.954Z,102008.64
2018-04-16T19:41:19.311Z,102012.58
2018-04-16T19:44:22.908Z,102020.70
2018-04-16T19:47:26.193Z,102034.59
2018-04-16T19:50:29.524Z,102038.70
2018-04-16T19:53:32.820Z,102045.09
2018-04-16T19:57:39.040Z,102051.15
2018-04-16T20:00:42.388Z,102059.48
2018-04-16T20:03:50.992Z,102055.21
2018-04-16T20:06:54.284Z,102060.93
2018-04-16T20:09:57.688Z,102062.32
2018-04-16T20:13:01.063Z,102071.34
2018-04-16T20:16:04.375Z,102078.27
2018-04-16T20:19:07.759Z,102079.98
2018-04-16T20:22:11.063Z,102089.90
2018-04-16T20:25:14.333Z,102093.61
2018-04-16T20:28:17.675Z,102096.67
2018-04-16T20:31:21.049Z,102103.80
2018-04-16T20:34:24.341Z,102106.12
2018-04-16T20:37:27.898Z,102111.45
2018-04-16T20:40:31.231Z,102112.53
2018-04-16T20:43:34.552Z,102114.55
2018-04-16T20:46:37.912Z,102120.39
2018-04-16T20:49:41.253Z,102122.74
2018-04-16T20:52:44.563Z,102128.08
2018-04-16T20:55:47.759Z,102124.13
2018-04-16T20:58:51.179Z,102131.86
2018-04-16T21:01:57.368Z,102127.74
2018-04-16T21:05:00.611Z,102132.87
2018-04-16T21:08:04.030Z,102132.11
2018-04-16T21:11:07.457Z,102130.81
2018-04-16T21:14:10.800Z,102131.44
2018-04-16T21:17:14.883Z,102141.96
2018-04-16T21:20:18.319Z,102145.64
2018-04-16T21:23:22.637Z,102145.53
2018-04-16T21:26:25.932Z,102145.11
2018-04-16T21:29:29.172Z,102155.51
2018-04-16T21:32:32.634Z,102156.81
2018-04-16T21:35:35.939Z,102160.14
2018-04-16T21:38:39.572Z,102165.65
2018-04-16T21:41:42.859Z,102167.93
2018-04-16T21:44:46.058Z,102167.04
2018-04-16T21:47:49.451Z,102175.11
2018-04-16T21:50:52.735Z,102169.86
2018-04-16T21:53:56.045Z,102170.76
2018-04-16T21:56:59.435Z,102174.00
2018-04-16T22:00:02.735Z,102184.78
2018-04-16T22:03:06.142Z,102191.35
2018-04-16T22:06:09.742Z,102190.81
2018-04-16T22:09:13.119Z,102188.83
2018-04-16T22:12:16.432Z,102206.16
2018-04-16T22:15:19.751Z,102202.20
2018-04-16T22:18:23.132Z,102208.90
2018-04-16T22:21:26.570Z,102210.79
2018-04-16T22:24:29.749Z,102213.65
2018-04-16T22:27:33.132Z,102213.15
2018-04-16T22:30:36.338Z,102218.65
2018-04-16T22:33:39.602Z,102221.04
2018-04-16T22:36:43.141Z,102223.34
2018-04-16T22:39:46.296Z,102227.62
2018-04-16T22:42:49.664Z,102222.59
2018-04-16T22:45:53.134Z,102233.25
2018-04-16T22:48:56.493Z,102236.59
2018-04-16T22:51:59.940Z,102234.92
2018-04-16T22:55:03.208Z,102244.00
2018-04-16T22:58:06.545Z,102251.66
2018-04-16T23:01:09.791Z,102255.80
2018-04-16T23:04:12.975Z,102260.46
2018-04-16T23:07:16.216Z,102260.27
2018-04-16T23:10:19.505Z,102267.23
2018-04-16T23:13:22.764Z,102264.36
2018-04-16T23:16:26.091Z,102271.75
2018-04-16T23:19:29.469Z,102273.82
2018-04-16T23:22:32.679Z,102276.43
2018-04-16T23:25:36.055Z,102281.82
2018-04-16T23:28:39.309Z,102280.04
2018-04-16T23:31:42.575Z,102284.47
2018-04-16T23:34:45.968Z,102288.15
2018-04-16T23:37:49.346Z,102290.38
2018-04-16T23:40:52.587Z,102292.09
2018-04-16T23:43:55.844Z,102289.77
2018-04-16T23:47:00.025Z,102289.17
2018-04-16T23:50:03.363Z,102295.78
2018-04-16T23:53:06.613Z,102302.31
2018-04-16T23:56:09.886Z,102299.35
2018-04-16T23:59:13.200Z,102302.17
